sensor_id;sensor_type;location;lat;lon;timestamp;P1;durP1;ratioP1;P2;durP2;ratioP2
30384;SDS011;17181;51.002;4.096;2023-10-09T00:01:04;8.33;;;4.37;;
30384;SDS011;17181;51.002;4.096;2023-10-09T00:03:39;8.03;;;3.90;;
30384;SDS011;17181;51.002;4.096;2023-10-09T00:06:06;13.93;;;4.13;;
30384;SDS011;17181;51.002;4.096;2023-10-09T00:08:32;7.10;;;3.97;;
30384;SDS011;17181;51.002;4.096;2023-10-09T00:11:02;5.23;;;3.13;;
30384;SDS011;17181;51.002;4.096;2023-10-09T00:13:42;7.67;;;3.87;;
30384;SDS011;17181;51.002;4.096;2023-10-09T00:16:16;8.67;;;4.43;;
30384;SDS011;17181;51.002;4.096;2023-10-09T00:19:09;4.37;;;2.93;;
30384;SDS011;17181;51.002;4.096;2023-10-09T00:21:44;10.87;;;3.47;;
30384;SDS011;17181;51.002;4.096;2023-10-09T00:24:10;8.53;;;4.07;;
30384;SDS011;17181;51.002;4.096;2023-10-09T00:26:45;6.33;;;3.53;;
30384;SDS011;17181;51.002;4.096;2023-10-09T00:29:15;10.40;;;4.07;;
30384;SDS011;17181;51.002;4.096;2023-10-09T00:31:51;14.07;;;4.03;;
30384;SDS011;17181;51.002;4.096;2023-10-09T00:34:28;8.37;;;4.13;;
30384;SDS011;17181;51.002;4.096;2023-10-09T00:36:54;11.23;;;4.87;;
30384;SDS011;17181;51.002;4.096;2023-10-09T00:39:23;12.10;;;3.83;;
30384;SDS011;17181;51.002;4.096;2023-10-09T00:42:10;7.73;;;3.47;;
30384;SDS011;17181;51.002;4.096;2023-10-09T00:44:40;5.27;;;3.80;;
30384;SDS011;17181;51.002;4.096;2023-10-09T00:47:09;14.00;;;3.97;;
30384;SDS011;17181;51.002;4.096;2023-10-09T00:50:08;13.33;;;3.63;;
30384;SDS011;17181;51.002;4.096;2023-10-09T00:52:47;7.93;;;4.10;;
30384;SDS011;17181;51.002;4.096;2023-10-09T00:55:27;6.93;;;3.73;;
30384;SDS011;17181;51.002;4.096;2023-10-09T00:58:09;9.37;;;3.13;;
30384;SDS011;17181;51.002;4.096;2023-10-09T01:00:38;10.10;;;4.80;;
30384;SDS011;17181;51.002;4.096;2023-10-09T01:03:12;14.30;;;4.37;;
30384;SDS011;17181;51.002;4.096;2023-10-09T01:05:41;17.10;;;3.90;;
30384;SDS011;17181;51.002;4.096;2023-10-09T01:08:18;8.23;;;3.80;;
30384;SDS011;17181;51.002;4.096;2023-10-09T01:10:59;7.83;;;3.53;;
30384;SDS011;17181;51.002;4.096;2023-10-09T01:13:43;8.80;;;3.30;;
30384;SDS011;17181;51.002;4.096;2023-10-09T01:16:13;5.30;;;3.17;;
30384;SDS011;17181;51.002;4.096;2023-10-09T01:18:46;4.30;;;3.17;;
30384;SDS011;17181;51.002;4.096;2023-10-09T01:21:17;6.67;;;3.43;;
30384;SDS011;17181;51.002;4.096;2023-10-09T01:23:46;7.53;;;3.97;;
30384;SDS011;17181;51.002;4.096;2023-10-09T01:26:28;12.17;;;3.23;;
30384;SDS011;17181;51.002;4.096;2023-10-09T01:29:00;8.30;;;3.87;;
30384;SDS011;17181;51.002;4.096;2023-10-09T01:31:27;9.90;;;4.00;;
30384;SDS011;17181;51.002;4.096;2023-10-09T01:34:02;10.93;;;3.10;;
30384;SDS011;17181;51.002;4.096;2023-10-09T01:36:41;8.17;;;4.90;;
30384;SDS011;17181;51.002;4.096;2023-10-09T01:39:07;5.83;;;3.47;;
30384;SDS011;17181;51.002;4.096;2023-10-09T01:41:49;5.63;;;3.27;;
30384;SDS011;17181;51.002;4.096;2023-10-09T01:44:23;7.80;;;3.17;;
30384;SDS011;17181;51.002;4.096;2023-10-09T01:46:57;7.67;;;4.33;;
30384;SDS011;17181;51.002;4.096;2023-10-09T01:49:24;8.77;;;4.10;;
30384;SDS011;17181;51.002;4.096;2023-10-09T01:51:57;9.10;;;3.70;;
30384;SDS011;17181;51.002;4.096;2023-10-09T01:54:32;5.60;;;3.53;;
30384;SDS011;17181;51.002;4.096;2023-10-09T01:57:06;6.67;;;4.00;;
30384;SDS011;17181;51.002;4.096;2023-10-09T01:59:47;7.23;;;3.03;;
30384;SDS011;17181;51.002;4.096;2023-10-09T02:02:18;4.47;;;3.00;;
30384;SDS011;17181;51.002;4.096;2023-10-09T02:04:58;9.17;;;3.63;;
30384;SDS011;17181;51.002;4.096;2023-10-09T02:07:40;7.30;;;4.10;;
30384;SDS011;17181;51.002;4.096;2023-10-09T02:10:11;17.10;;;4.13;;
30384;SDS011;17181;51.002;4.096;2023-10-09T02:12:50;10.90;;;4.33;;
30384;SDS011;17181;51.002;4.096;2023-10-09T02:15:23;12.83;;;3.63;;
30384;SDS011;17181;51.002;4.096;2023-10-09T02:18:20;14.63;;;4.63;;
30384;SDS011;17181;51.002;4.096;2023-10-09T02:23:25;7.80;;;4.37;;
30384;SDS011;17181;51.002;4.096;2023-10-09T02:25:57;6.23;;;3.73;;
30384;SDS011;17181;51.002;4.096;2023-10-09T02:28:26;7.47;;;4.03;;
30384;SDS011;17181;51.002;4.096;2023-10-09T02:30:58;7.13;;;4.07;;
30384;SDS011;17181;51.002;4.096;2023-10-09T02:33:26;8.83;;;4.63;;
30384;SDS011;17181;51.002;4.096;2023-10-09T02:35:56;8.13;;;4.17;;
30384;SDS011;17181;51.002;4.096;2023-10-09T13:15:58;19.77;;;8.43;;
30384;SDS011;17181;51.002;4.096;2023-10-09T13:18:24;15.07;;;8.27;;
30384;SDS011;17181;51.002;4.096;2023-10-09T13:20:50;17.37;;;9.60;;
30384;SDS011;17181;51.002;4.096;2023-10-09T13:23:16;11.63;;;7.17;;
30384;SDS011;17181;51.002;4.096;2023-10-09T13:25:42;23.47;;;11.73;;
30384;SDS011;17181;51.002;4.096;2023-10-09T13:28:09;21.53;;;10.43;;
30384;SDS011;17181;51.002;4.096;2023-10-09T13:30:37;16.97;;;8.77;;
30384;SDS011;17181;51.002;4.096;2023-10-09T13:33:14;17.10;;;8.40;;
30384;SDS011;17181;51.002;4.096;2023-10-09T13:35:42;13.67;;;8.77;;
30384;SDS011;17181;51.002;4.096;2023-10-09T13:38:16;17.03;;;9.60;;
30384;SDS011;17181;51.002;4.096;2023-10-09T13:40:42;19.77;;;9.60;;
30384;SDS011;17181;51.002;4.096;2023-10-09T13:43:08;20.03;;;8.60;;
30384;SDS011;17181;51.002;4.096;2023-10-09T13:45:41;15.47;;;8.63;;
30384;SDS011;17181;51.002;4.096;2023-10-09T13:48:15;4.53;;;2.87;;
30384;SDS011;17181;51.002;4.096;2023-10-09T13:50:50;16.00;;;6.20;;
30384;SDS011;17181;51.002;4.096;2023-10-09T13:53:22;16.00;;;10.10;;
30384;SDS011;17181;51.002;4.096;2023-10-09T13:55:52;20.40;;;8.53;;
30384;SDS011;17181;51.002;4.096;2023-10-09T13:58:21;18.03;;;9.40;;
30384;SDS011;17181;51.002;4.096;2023-10-09T14:00:46;25.50;;;10.07;;
30384;SDS011;17181;51.002;4.096;2023-10-09T14:03:15;18.77;;;9.40;;
30384;SDS011;17181;51.002;4.096;2023-10-09T14:05:44;16.70;;;8.60;;
30384;SDS011;17181;51.002;4.096;2023-10-09T19:47:09;21.57;;;8.97;;
30384;SDS011;17181;51.002;4.096;2023-10-09T19:49:36;20.47;;;8.47;;
30384;SDS011;17181;51.002;4.096;2023-10-09T19:52:05;15.47;;;8.00;;
30384;SDS011;17181;51.002;4.096;2023-10-09T19:54:31;17.20;;;8.07;;
30384;SDS011;17181;51.002;4.096;2023-10-09T19:57:01;11.23;;;7.13;;
30384;SDS011;17181;51.002;4.096;2023-10-09T19:59:27;17.97;;;7.97;;
30384;SDS011;17181;51.002;4.096;2023-10-09T20:01:54;11.27;;;6.40;;
30384;SDS011;17181;51.002;4.096;2023-10-09T20:04:20;27.90;;;8.10;;
30384;SDS011;17181;51.002;4.096;2023-10-09T20:06:48;15.87;;;8.90;;
30384;SDS011;17181;51.002;4.096;2023-10-09T20:09:14;16.27;;;7.30;;
30384;SDS011;17181;51.002;4.096;2023-10-09T20:11:42;20.20;;;8.47;;
30384;SDS011;17181;51.002;4.096;2023-10-09T20:14:08;20.30;;;8.13;;
30384;SDS011;17181;51.002;4.096;2023-10-09T20:16:34;18.57;;;8.60;;
30384;SDS011;17181;51.002;4.096;2023-10-09T20:19:02;14.83;;;8.03;;
30384;SDS011;17181;51.002;4.096;2023-10-09T20:21:36;23.33;;;9.63;;
30384;SDS011;17181;51.002;4.096;2023-10-09T20:24:03;13.80;;;8.30;;
30384;SDS011;17181;51.002;4.096;2023-10-09T20:26:29;14.50;;;8.10;;
30384;SDS011;17181;51.002;4.096;2023-10-09T20:28:55;20.17;;;9.57;;
30384;SDS011;17181;51.002;4.096;2023-10-09T20:31:21;15.10;;;7.60;;
30384;SDS011;17181;51.002;4.096;2023-10-09T20:33:48;16.07;;;8.87;;
30384;SDS011;17181;51.002;4.096;2023-10-09T20:36:16;15.03;;;8.67;;
30384;SDS011;17181;51.002;4.096;2023-10-09T20:38:47;17.53;;;9.80;;
30384;SDS011;17181;51.002;4.096;2023-10-09T20:41:14;18.70;;;10.63;;
30384;SDS011;17181;51.002;4.096;2023-10-09T20:43:41;19.47;;;9.43;;
30384;SDS011;17181;51.002;4.096;2023-10-09T20:46:07;15.30;;;9.17;;
30384;SDS011;17181;51.002;4.096;2023-10-09T20:48:40;15.50;;;8.90;;
30384;SDS011;17181;51.002;4.096;2023-10-09T20:51:10;17.10;;;9.50;;
30384;SDS011;17181;51.002;4.096;2023-10-09T20:53:37;14.60;;;7.63;;
30384;SDS011;17181;51.002;4.096;2023-10-09T20:56:04;12.07;;;7.00;;
30384;SDS011;17181;51.002;4.096;2023-10-09T20:58:32;11.50;;;8.20;;
30384;SDS011;17181;51.002;4.096;2023-10-09T21:00:58;21.23;;;8.93;;
30384;SDS011;17181;51.002;4.096;2023-10-09T21:03:27;16.03;;;8.97;;
30384;SDS011;17181;51.002;4.096;2023-10-09T21:05:55;16.33;;;8.20;;
30384;SDS011;17181;51.002;4.096;2023-10-09T21:08:24;16.90;;;9.90;;
30384;SDS011;17181;51.002;4.096;2023-10-09T21:10:50;17.37;;;10.17;;
30384;SDS011;17181;51.002;4.096;2023-10-09T21:13:17;15.83;;;9.33;;
30384;SDS011;17181;51.002;4.096;2023-10-09T21:15:43;18.20;;;10.80;;
30384;SDS011;17181;51.002;4.096;2023-10-09T21:18:10;17.57;;;10.50;;
30384;SDS011;17181;51.002;4.096;2023-10-09T21:20:42;22.10;;;9.63;;
30384;SDS011;17181;51.002;4.096;2023-10-09T21:23:08;30.33;;;10.47;;
30384;SDS011;17181;51.002;4.096;2023-10-09T21:25:40;18.77;;;9.73;;
30384;SDS011;17181;51.002;4.096;2023-10-09T21:28:06;16.70;;;9.63;;
30384;SDS011;17181;51.002;4.096;2023-10-09T21:30:32;17.33;;;9.53;;
30384;SDS011;17181;51.002;4.096;2023-10-09T21:32:59;18.53;;;9.03;;
30384;SDS011;17181;51.002;4.096;2023-10-09T21:35:27;14.93;;;9.27;;
30384;SDS011;17181;51.002;4.096;2023-10-09T21:37:55;26.40;;;9.37;;
30384;SDS011;17181;51.002;4.096;2023-10-09T21:40:27;15.23;;;8.43;;
30384;SDS011;17181;51.002;4.096;2023-10-09T21:43:50;14.07;;;7.70;;
30384;SDS011;17181;51.002;4.096;2023-10-09T21:46:18;13.23;;;8.23;;
30384;SDS011;17181;51.002;4.096;2023-10-09T21:48:46;15.20;;;8.83;;
30384;SDS011;17181;51.002;4.096;2023-10-09T21:51:12;14.10;;;8.77;;
30384;SDS011;17181;51.002;4.096;2023-10-09T21:53:41;10.70;;;6.53;;
30384;SDS011;17181;51.002;4.096;2023-10-09T21:56:10;11.27;;;7.40;;
30384;SDS011;17181;51.002;4.096;2023-10-09T21:58:36;14.03;;;8.77;;
30384;SDS011;17181;51.002;4.096;2023-10-09T22:01:03;14.10;;;8.93;;
30384;SDS011;17181;51.002;4.096;2023-10-09T22:03:32;15.90;;;8.83;;
30384;SDS011;17181;51.002;4.096;2023-10-09T22:06:01;11.50;;;8.17;;
30384;SDS011;17181;51.002;4.096;2023-10-09T22:08:27;10.87;;;6.77;;
30384;SDS011;17181;51.002;4.096;2023-10-09T22:10:53;15.60;;;8.77;;
30384;SDS011;17181;51.002;4.096;2023-10-09T22:13:18;18.03;;;8.53;;
30384;SDS011;17181;51.002;4.096;2023-10-09T22:15:47;14.83;;;9.40;;
30384;SDS011;17181;51.002;4.096;2023-10-09T22:18:13;13.53;;;8.73;;
30384;SDS011;17181;51.002;4.096;2023-10-09T22:20:49;21.50;;;9.53;;
30384;SDS011;17181;51.002;4.096;2023-10-09T22:23:19;15.30;;;9.43;;
30384;SDS011;17181;51.002;4.096;2023-10-09T22:25:55;16.03;;;9.03;;
30384;SDS011;17181;51.002;4.096;2023-10-09T22:28:25;15.53;;;9.13;;
30384;SDS011;17181;51.002;4.096;2023-10-09T22:30:53;15.20;;;7.93;;
30384;SDS011;17181;51.002;4.096;2023-10-09T22:33:22;15.97;;;8.00;;
30384;SDS011;17181;51.002;4.096;2023-10-09T22:35:51;16.57;;;8.53;;
30384;SDS011;17181;51.002;4.096;2023-10-09T22:38:18;15.70;;;8.53;;
30384;SDS011;17181;51.002;4.096;2023-10-09T22:40:46;12.33;;;8.67;;
30384;SDS011;17181;51.002;4.096;2023-10-09T22:43:18;18.87;;;9.90;;
30384;SDS011;17181;51.002;4.096;2023-10-09T22:45:48;22.47;;;10.00;;
30384;SDS011;17181;51.002;4.096;2023-10-09T22:48:16;10.87;;;8.57;;
30384;SDS011;17181;51.002;4.096;2023-10-09T22:50:47;14.77;;;9.20;;
30384;SDS011;17181;51.002;4.096;2023-10-09T22:53:24;17.20;;;8.57;;
30384;SDS011;17181;51.002;4.096;2023-10-09T22:56:21;23.07;;;9.20;;
30384;SDS011;17181;51.002;4.096;2023-10-09T22:59:00;20.03;;;9.50;;
30384;SDS011;17181;51.002;4.096;2023-10-09T23:01:45;13.60;;;8.30;;
30384;SDS011;17181;51.002;4.096;2023-10-09T23:04:11;13.67;;;8.27;;
30384;SDS011;17181;51.002;4.096;2023-10-09T23:06:42;13.90;;;9.07;;
30384;SDS011;17181;51.002;4.096;2023-10-09T23:09:11;17.70;;;10.20;;
30384;SDS011;17181;51.002;4.096;2023-10-09T23:11:41;13.77;;;8.73;;
30384;SDS011;17181;51.002;4.096;2023-10-09T23:14:07;12.07;;;8.53;;
30384;SDS011;17181;51.002;4.096;2023-10-09T23:16:50;15.10;;;9.10;;
30384;SDS011;17181;51.002;4.096;2023-10-09T23:19:27;16.47;;;10.30;;
30384;SDS011;17181;51.002;4.096;2023-10-09T23:22:11;14.03;;;9.30;;
30384;SDS011;17181;51.002;4.096;2023-10-09T23:24:43;15.37;;;8.47;;
30384;SDS011;17181;51.002;4.096;2023-10-09T23:27:33;11.40;;;7.63;;
30384;SDS011;17181;51.002;4.096;2023-10-09T23:38:39;8.70;;;7.07;;
30384;SDS011;17181;51.002;4.096;2023-10-09T23:41:23;33.33;;;9.97;;
30384;SDS011;17181;51.002;4.096;2023-10-09T23:43:49;15.03;;;8.97;;
30384;SDS011;17181;51.002;4.096;2023-10-09T23:46:18;15.00;;;9.00;;
30384;SDS011;17181;51.002;4.096;2023-10-09T23:48:49;14.00;;;8.53;;
30384;SDS011;17181;51.002;4.096;2023-10-09T23:51:19;13.87;;;9.27;;
